sensor_id;sensor_type;location;lat;lon;timestamp;P1;durP1;ratioP1;P2;durP2;ratioP2
77026;SDS011;65956;52.986;17.490;2023-07-20T00:02:20;10.70;;;6.30;;
77026;SDS011;65956;52.986;17.490;2023-07-20T00:04:46;8.20;;;5.40;;
77026;SDS011;65956;52.986;17.490;2023-07-20T00:07:12;8.80;;;5.70;;
77026;SDS011;65956;52.986;17.490;2023-07-20T00:09:39;8.10;;;5.30;;
77026;SDS011;65956;52.986;17.490;2023-07-20T00:12:05;9.90;;;5.20;;
77026;SDS011;65956;52.986;17.490;2023-07-20T00:14:32;8.70;;;5.40;;
77026;SDS011;65956;52.986;17.490;2023-07-20T00:16:58;8.60;;;5.20;;
77026;SDS011;65956;52.986;17.490;2023-07-20T00:19:24;10.40;;;6.00;;
77026;SDS011;65956;52.986;17.490;2023-07-20T00:21:52;8.10;;;5.40;;
77026;SDS011;65956;52.986;17.490;2023-07-20T00:24:18;9.00;;;5.80;;
77026;SDS011;65956;52.986;17.490;2023-07-20T00:26:44;10.90;;;6.00;;
77026;SDS011;65956;52.986;17.490;2023-07-20T00:29:10;9.10;;;6.00;;
77026;SDS011;65956;52.986;17.490;2023-07-20T00:31:36;8.90;;;7.10;;
77026;SDS011;65956;52.986;17.490;2023-07-20T00:34:03;10.50;;;7.00;;
77026;SDS011;65956;52.986;17.490;2023-07-20T00:36:30;9.70;;;6.60;;
77026;SDS011;65956;52.986;17.490;2023-07-20T00:38:56;10.30;;;6.60;;
77026;SDS011;65956;52.986;17.490;2023-07-20T00:41:22;9.90;;;7.00;;
77026;SDS011;65956;52.986;17.490;2023-07-20T00:43:48;10.30;;;6.70;;
77026;SDS011;65956;52.986;17.490;2023-07-20T00:46:14;8.30;;;6.30;;
77026;SDS011;65956;52.986;17.490;2023-07-20T00:48:40;8.50;;;5.90;;
77026;SDS011;65956;52.986;17.490;2023-07-20T00:51:08;9.30;;;6.60;;
77026;SDS011;65956;52.986;17.490;2023-07-20T00:53:35;9.50;;;7.00;;
77026;SDS011;65956;52.986;17.490;2023-07-20T00:56:02;9.10;;;6.10;;
77026;SDS011;65956;52.986;17.490;2023-07-20T00:58:29;9.30;;;6.00;;
77026;SDS011;65956;52.986;17.490;2023-07-20T01:00:55;10.20;;;6.60;;
77026;SDS011;65956;52.986;17.490;2023-07-20T01:03:21;8.80;;;6.00;;
77026;SDS011;65956;52.986;17.490;2023-07-20T01:06:02;11.00;;;5.90;;
77026;SDS011;65956;52.986;17.490;2023-07-20T01:11:41;9.50;;;5.50;;
77026;SDS011;65956;52.986;17.490;2023-07-20T01:14:14;9.80;;;6.90;;
77026;SDS011;65956;52.986;17.490;2023-07-20T01:16:42;10.50;;;6.00;;
77026;SDS011;65956;52.986;17.490;2023-07-20T01:19:08;9.10;;;4.80;;
77026;SDS011;65956;52.986;17.490;2023-07-20T01:21:47;8.00;;;4.50;;
77026;SDS011;65956;52.986;17.490;2023-07-20T01:27:22;7.70;;;5.00;;
77026;SDS011;65956;52.986;17.490;2023-07-20T01:30:12;9.10;;;4.80;;
77026;SDS011;65956;52.986;17.490;2023-07-20T01:32:46;9.50;;;4.80;;
77026;SDS011;65956;52.986;17.490;2023-07-20T01:35:14;7.60;;;4.90;;
77026;SDS011;65956;52.986;17.490;2023-07-20T01:37:43;8.40;;;5.10;;
77026;SDS011;65956;52.986;17.490;2023-07-20T01:40:13;7.50;;;4.90;;
77026;SDS011;65956;52.986;17.490;2023-07-20T01:42:46;11.20;;;5.10;;
77026;SDS011;65956;52.986;17.490;2023-07-20T01:45:13;7.40;;;5.20;;
77026;SDS011;65956;52.986;17.490;2023-07-20T01:47:39;6.80;;;4.80;;
77026;SDS011;65956;52.986;17.490;2023-07-20T01:50:05;8.40;;;5.10;;
77026;SDS011;65956;52.986;17.490;2023-07-20T01:52:32;8.60;;;5.20;;
77026;SDS011;65956;52.986;17.490;2023-07-20T01:54:58;10.20;;;5.00;;
77026;SDS011;65956;52.986;17.490;2023-07-20T01:57:24;7.90;;;5.40;;
77026;SDS011;65956;52.986;17.490;2023-07-20T01:59:51;8.30;;;5.40;;
77026;SDS011;65956;52.986;17.490;2023-07-20T02:02:17;7.90;;;5.10;;
77026;SDS011;65956;52.986;17.490;2023-07-20T02:04:45;8.80;;;5.20;;
77026;SDS011;65956;52.986;17.490;2023-07-20T02:07:10;8.20;;;5.50;;
77026;SDS011;65956;52.986;17.490;2023-07-20T02:09:36;7.20;;;5.50;;
77026;SDS011;65956;52.986;17.490;2023-07-20T02:12:02;8.80;;;5.60;;
77026;SDS011;65956;52.986;17.490;2023-07-20T02:14:29;7.50;;;4.70;;
77026;SDS011;65956;52.986;17.490;2023-07-20T02:16:55;6.50;;;4.10;;
77026;SDS011;65956;52.986;17.490;2023-07-20T02:19:27;5.80;;;3.90;;
77026;SDS011;65956;52.986;17.490;2023-07-20T02:21:53;5.90;;;3.70;;
77026;SDS011;65956;52.986;17.490;2023-07-20T02:24:19;8.00;;;5.50;;
77026;SDS011;65956;52.986;17.490;2023-07-20T02:26:45;7.30;;;4.10;;
77026;SDS011;65956;52.986;17.490;2023-07-20T02:29:11;9.40;;;5.30;;
77026;SDS011;65956;52.986;17.490;2023-07-20T02:31:39;8.20;;;4.90;;
77026;SDS011;65956;52.986;17.490;2023-07-20T02:34:06;9.00;;;4.70;;
77026;SDS011;65956;52.986;17.490;2023-07-20T02:36:32;9.20;;;4.90;;
77026;SDS011;65956;52.986;17.490;2023-07-20T02:39:00;8.60;;;5.80;;
77026;SDS011;65956;52.986;17.490;2023-07-20T02:41:28;15.60;;;7.30;;
77026;SDS011;65956;52.986;17.490;2023-07-20T02:43:54;12.90;;;6.60;;
77026;SDS011;65956;52.986;17.490;2023-07-20T02:46:20;12.40;;;5.80;;
77026;SDS011;65956;52.986;17.490;2023-07-20T02:48:46;7.60;;;4.60;;
77026;SDS011;65956;52.986;17.490;2023-07-20T02:51:12;9.30;;;5.60;;
77026;SDS011;65956;52.986;17.490;2023-07-20T02:53:38;9.90;;;5.30;;
77026;SDS011;65956;52.986;17.490;2023-07-20T02:56:04;9.70;;;5.00;;
77026;SDS011;65956;52.986;17.490;2023-07-20T02:58:30;8.40;;;4.50;;
77026;SDS011;65956;52.986;17.490;2023-07-20T03:00:56;10.10;;;4.90;;
77026;SDS011;65956;52.986;17.490;2023-07-20T03:03:22;6.20;;;4.30;;
77026;SDS011;65956;52.986;17.490;2023-07-20T03:05:48;7.90;;;4.50;;
77026;SDS011;65956;52.986;17.490;2023-07-20T03:08:20;10.30;;;4.20;;
77026;SDS011;65956;52.986;17.490;2023-07-20T03:10:46;10.60;;;5.60;;
77026;SDS011;65956;52.986;17.490;2023-07-20T03:13:12;10.20;;;6.40;;
77026;SDS011;65956;52.986;17.490;2023-07-20T03:15:40;11.10;;;6.20;;
77026;SDS011;65956;52.986;17.490;2023-07-20T03:18:06;8.40;;;5.60;;
77026;SDS011;65956;52.986;17.490;2023-07-20T03:20:32;10.10;;;5.40;;
77026;SDS011;65956;52.986;17.490;2023-07-20T03:22:58;9.30;;;5.60;;
77026;SDS011;65956;52.986;17.490;2023-07-20T03:25:24;8.10;;;5.00;;
77026;SDS011;65956;52.986;17.490;2023-07-20T03:27:50;9.00;;;5.60;;
77026;SDS011;65956;52.986;17.490;2023-07-20T03:30:16;14.10;;;8.50;;
77026;SDS011;65956;52.986;17.490;2023-07-20T03:32:42;9.30;;;5.60;;
77026;SDS011;65956;52.986;17.490;2023-07-20T03:35:08;7.30;;;5.30;;
77026;SDS011;65956;52.986;17.490;2023-07-20T03:37:34;10.20;;;4.90;;
77026;SDS011;65956;52.986;17.490;2023-07-20T03:40:02;7.60;;;4.80;;
77026;SDS011;65956;52.986;17.490;2023-07-20T03:42:30;7.00;;;5.10;;
77026;SDS011;65956;52.986;17.490;2023-07-20T03:44:56;9.10;;;5.00;;
77026;SDS011;65956;52.986;17.490;2023-07-20T03:47:22;6.90;;;4.30;;
77026;SDS011;65956;52.986;17.490;2023-07-20T03:49:47;5.40;;;3.80;;
77026;SDS011;65956;52.986;17.490;2023-07-20T03:52:13;6.40;;;3.70;;
77026;SDS011;65956;52.986;17.490;2023-07-20T03:54:39;7.30;;;3.80;;
77026;SDS011;65956;52.986;17.490;2023-07-20T03:57:05;7.50;;;3.50;;
77026;SDS011;65956;52.986;17.490;2023-07-20T03:59:31;6.20;;;4.10;;
77026;SDS011;65956;52.986;17.490;2023-07-20T04:01:59;6.90;;;3.80;;
77026;SDS011;65956;52.986;17.490;2023-07-20T04:04:25;5.50;;;3.30;;
77026;SDS011;65956;52.986;17.490;2023-07-20T04:06:51;7.20;;;3.40;;
77026;SDS011;65956;52.986;17.490;2023-07-20T04:09:18;5.30;;;3.00;;
77026;SDS011;65956;52.986;17.490;2023-07-20T04:11:44;4.50;;;2.90;;
77026;SDS011;65956;52.986;17.490;2023-07-20T04:14:10;5.90;;;3.10;;
77026;SDS011;65956;52.986;17.490;2023-07-20T04:16:36;5.40;;;3.10;;
77026;SDS011;65956;52.986;17.490;2023-07-20T04:19:03;5.30;;;3.40;;
77026;SDS011;65956;52.986;17.490;2023-07-20T04:21:29;5.50;;;3.70;;
77026;SDS011;65956;52.986;17.490;2023-07-20T04:23:55;5.10;;;3.40;;
77026;SDS011;65956;52.986;17.490;2023-07-20T04:26:21;6.20;;;3.30;;
77026;SDS011;65956;52.986;17.490;2023-07-20T04:28:48;5.70;;;2.90;;
77026;SDS011;65956;52.986;17.490;2023-07-20T04:31:27;4.70;;;3.00;;
77026;SDS011;65956;52.986;17.490;2023-07-20T04:33:53;4.70;;;2.90;;
77026;SDS011;65956;52.986;17.490;2023-07-20T04:36:19;4.60;;;2.80;;
77026;SDS011;65956;52.986;17.490;2023-07-20T04:38:45;5.20;;;3.10;;
77026;SDS011;65956;52.986;17.490;2023-07-20T04:41:22;6.20;;;3.60;;
77026;SDS011;65956;52.986;17.490;2023-07-20T04:43:50;6.10;;;3.90;;
77026;SDS011;65956;52.986;17.490;2023-07-20T04:46:25;5.80;;;3.90;;
77026;SDS011;65956;52.986;17.490;2023-07-20T04:48:51;8.40;;;4.90;;
77026;SDS011;65956;52.986;17.490;2023-07-20T04:51:17;6.40;;;3.80;;
77026;SDS011;65956;52.986;17.490;2023-07-20T04:53:48;6.60;;;3.60;;
77026;SDS011;65956;52.986;17.490;2023-07-20T04:56:14;6.10;;;3.70;;
77026;SDS011;65956;52.986;17.490;2023-07-20T04:58:40;6.10;;;3.90;;
77026;SDS011;65956;52.986;17.490;2023-07-20T05:01:07;6.00;;;3.00;;
77026;SDS011;65956;52.986;17.490;2023-07-20T05:03:35;5.10;;;2.90;;
77026;SDS011;65956;52.986;17.490;2023-07-20T05:06:01;5.50;;;3.00;;
77026;SDS011;65956;52.986;17.490;2023-07-20T05:08:27;5.50;;;2.90;;
77026;SDS011;65956;52.986;17.490;2023-07-20T05:10:53;4.70;;;2.60;;
77026;SDS011;65956;52.986;17.490;2023-07-20T05:13:19;4.80;;;3.10;;
77026;SDS011;65956;52.986;17.490;2023-07-20T05:15:45;4.70;;;3.10;;
77026;SDS011;65956;52.986;17.490;2023-07-20T05:18:14;4.90;;;3.10;;
77026;SDS011;65956;52.986;17.490;2023-07-20T05:20:48;5.20;;;3.30;;
77026;SDS011;65956;52.986;17.490;2023-07-20T05:23:18;6.10;;;3.50;;
77026;SDS011;65956;52.986;17.490;2023-07-20T05:25:45;7.00;;;3.90;;
77026;SDS011;65956;52.986;17.490;2023-07-20T05:28:12;8.90;;;5.60;;
77026;SDS011;65956;52.986;17.490;2023-07-20T05:30:38;5.30;;;3.60;;
77026;SDS011;65956;52.986;17.490;2023-07-20T05:33:05;4.70;;;2.90;;
77026;SDS011;65956;52.986;17.490;2023-07-20T05:35:31;4.70;;;2.50;;
77026;SDS011;65956;52.986;17.490;2023-07-20T05:37:57;5.50;;;2.90;;
77026;SDS011;65956;52.986;17.490;2023-07-20T05:40:23;5.60;;;2.80;;
77026;SDS011;65956;52.986;17.490;2023-07-20T05:42:49;4.70;;;2.60;;
77026;SDS011;65956;52.986;17.490;2023-07-20T05:45:17;3.90;;;2.50;;
77026;SDS011;65956;52.986;17.490;2023-07-20T05:47:43;4.00;;;2.30;;
77026;SDS011;65956;52.986;17.490;2023-07-20T05:50:10;5.30;;;2.40;;
77026;SDS011;65956;52.986;17.490;2023-07-20T05:52:36;5.10;;;2.20;;
77026;SDS011;65956;52.986;17.490;2023-07-20T05:55:04;4.30;;;2.10;;
77026;SDS011;65956;52.986;17.490;2023-07-20T05:57:31;3.80;;;2.50;;
77026;SDS011;65956;52.986;17.490;2023-07-20T05:59:57;4.00;;;2.10;;
77026;SDS011;65956;52.986;17.490;2023-07-20T06:02:23;4.00;;;2.40;;
77026;SDS011;65956;52.986;17.490;2023-07-20T06:04:49;4.90;;;2.30;;
77026;SDS011;65956;52.986;17.490;2023-07-20T06:07:15;5.60;;;2.30;;
77026;SDS011;65956;52.986;17.490;2023-07-20T06:09:41;4.00;;;2.20;;
77026;SDS011;65956;52.986;17.490;2023-07-20T06:12:07;4.00;;;2.70;;
77026;SDS011;65956;52.986;17.490;2023-07-20T06:14:34;6.00;;;2.10;;
77026;SDS011;65956;52.986;17.490;2023-07-20T06:17:00;3.50;;;2.10;;
77026;SDS011;65956;52.986;17.490;2023-07-20T06:19:26;4.30;;;2.20;;
77026;SDS011;65956;52.986;17.490;2023-07-20T06:21:52;3.50;;;1.80;;
77026;SDS011;65956;52.986;17.490;2023-07-20T06:24:18;4.40;;;2.10;;
77026;SDS011;65956;52.986;17.490;2023-07-20T06:26:44;5.60;;;2.70;;
77026;SDS011;65956;52.986;17.490;2023-07-20T06:29:10;5.60;;;2.60;;
77026;SDS011;65956;52.986;17.490;2023-07-20T06:31:36;6.00;;;2.40;;
77026;SDS011;65956;52.986;17.490;2023-07-20T06:34:03;4.30;;;2.20;;
77026;SDS011;65956;52.986;17.490;2023-07-20T06:36:29;5.00;;;2.40;;
77026;SDS011;65956;52.986;17.490;2023-07-20T06:38:55;3.40;;;2.00;;
77026;SDS011;65956;52.986;17.490;2023-07-20T06:41:21;4.20;;;1.90;;
77026;SDS011;65956;52.986;17.490;2023-07-20T06:43:48;4.50;;;2.40;;
77026;SDS011;65956;52.986;17.490;2023-07-20T06:46:14;4.00;;;2.10;;
77026;SDS011;65956;52.986;17.490;2023-07-20T06:48:40;6.60;;;2.10;;
77026;SDS011;65956;52.986;17.490;2023-07-20T06:51:06;5.00;;;2.10;;
77026;SDS011;65956;52.986;17.490;2023-07-20T06:53:32;3.80;;;1.90;;
77026;SDS011;65956;52.986;17.490;2023-07-20T06:55:58;4.00;;;2.00;;
77026;SDS011;65956;52.986;17.490;2023-07-20T06:58:24;4.50;;;2.10;;
77026;SDS011;65956;52.986;17.490;2023-07-20T07:00:50;4.60;;;2.40;;
77026;SDS011;65956;52.986;17.490;2023-07-20T07:03:17;4.40;;;1.70;;
77026;SDS011;65956;52.986;17.490;2023-07-20T07:05:43;4.00;;;2.40;;
77026;SDS011;65956;52.986;17.490;2023-07-20T07:08:12;3.50;;;1.90;;
77026;SDS011;65956;52.986;17.490;2023-07-20T07:10:38;3.90;;;2.00;;
77026;SDS011;65956;52.986;17.490;2023-07-20T07:13:04;4.10;;;1.90;;
77026;SDS011;65956;52.986;17.490;2023-07-20T07:15:30;3.80;;;2.10;;
77026;SDS011;65956;52.986;17.490;2023-07-20T07:17:57;3.90;;;1.40;;
77026;SDS011;65956;52.986;17.490;2023-07-20T07:20:23;3.70;;;1.60;;
77026;SDS011;65956;52.986;17.490;2023-07-20T07:22:49;4.30;;;1.60;;
77026;SDS011;65956;52.986;17.490;2023-07-20T07:25:17;4.10;;;1.90;;
77026;SDS011;65956;52.986;17.490;2023-07-20T07:27:43;5.70;;;1.60;;
77026;SDS011;65956;52.986;17.490;2023-07-20T07:30:10;3.40;;;1.60;;
77026;SDS011;65956;52.986;17.490;2023-07-20T07:32:36;3.40;;;1.60;;
77026;SDS011;65956;52.986;17.490;2023-07-20T07:35:02;2.90;;;1.10;;
77026;SDS011;65956;52.986;17.490;2023-07-20T07:37:28;3.70;;;1.30;;
77026;SDS011;65956;52.986;17.490;2023-07-20T07:39:54;3.50;;;1.00;;
77026;SDS011;65956;52.986;17.490;2023-07-20T07:42:21;2.60;;;1.10;;
77026;SDS011;65956;52.986;17.490;2023-07-20T07:44:47;3.00;;;1.20;;
77026;SDS011;65956;52.986;17.490;2023-07-20T07:47:13;3.50;;;1.10;;
77026;SDS011;65956;52.986;17.490;2023-07-20T07:49:38;4.30;;;1.30;;
77026;SDS011;65956;52.986;17.490;2023-07-20T07:52:05;2.90;;;1.00;;
77026;SDS011;65956;52.986;17.490;2023-07-20T07:54:31;4.90;;;1.20;;
77026;SDS011;65956;52.986;17.490;2023-07-20T07:56:57;3.30;;;1.20;;
77026;SDS011;65956;52.986;17.490;2023-07-20T07:59:23;2.10;;;1.10;;
77026;SDS011;65956;52.986;17.490;2023-07-20T08:01:49;4.20;;;1.20;;
77026;SDS011;65956;52.986;17.490;2023-07-20T08:04:15;5.30;;;1.40;;
77026;SDS011;65956;52.986;17.490;2023-07-20T08:06:41;2.90;;;1.10;;
77026;SDS011;65956;52.986;17.490;2023-07-20T08:09:07;2.70;;;1.10;;
77026;SDS011;65956;52.986;17.490;2023-07-20T08:11:33;3.90;;;1.00;;
77026;SDS011;65956;52.986;17.490;2023-07-20T08:13:59;3.20;;;1.20;;
77026;SDS011;65956;52.986;17.490;2023-07-20T08:16:26;3.20;;;1.30;;
77026;SDS011;65956;52.986;17.490;2023-07-20T08:18:53;3.70;;;1.80;;
77026;SDS011;65956;52.986;17.490;2023-07-20T08:21:19;3.70;;;1.60;;
77026;SDS011;65956;52.986;17.490;2023-07-20T08:23:44;3.70;;;1.50;;
77026;SDS011;65956;52.986;17.490;2023-07-20T08:26:11;3.60;;;1.40;;
77026;SDS011;65956;52.986;17.490;2023-07-20T08:28:37;3.50;;;1.40;;
77026;SDS011;65956;52.986;17.490;2023-07-20T08:31:05;3.50;;;1.20;;
77026;SDS011;65956;52.986;17.490;2023-07-20T08:33:31;2.60;;;1.30;;
77026;SDS011;65956;52.986;17.490;2023-07-20T08:36:00;3.60;;;1.40;;
77026;SDS011;65956;52.986;17.490;2023-07-20T08:38:27;2.90;;;1.40;;
77026;SDS011;65956;52.986;17.490;2023-07-20T08:40:53;4.20;;;1.40;;
77026;SDS011;65956;52.986;17.490;2023-07-20T08:43:22;5.40;;;1.60;;
77026;SDS011;65956;52.986;17.490;2023-07-20T08:45:52;3.10;;;1.40;;
77026;SDS011;65956;52.986;17.490;2023-07-20T08:48:21;4.10;;;1.20;;
77026;SDS011;65956;52.986;17.490;2023-07-20T08:50:47;3.20;;;1.50;;
77026;SDS011;65956;52.986;17.490;2023-07-20T08:53:16;4.00;;;1.50;;
77026;SDS011;65956;52.986;17.490;2023-07-20T08:55:46;5.10;;;1.30;;
77026;SDS011;65956;52.986;17.490;2023-07-20T08:58:15;4.30;;;1.60;;
77026;SDS011;65956;52.986;17.490;2023-07-20T09:00:43;3.50;;;1.10;;
77026;SDS011;65956;52.986;17.490;2023-07-20T09:03:10;3.00;;;1.20;;
77026;SDS011;65956;52.986;17.490;2023-07-20T09:05:37;4.00;;;2.00;;
77026;SDS011;65956;52.986;17.490;2023-07-20T09:08:05;6.20;;;1.90;;
77026;SDS011;65956;52.986;17.490;2023-07-20T09:10:31;3.00;;;1.20;;
77026;SDS011;65956;52.986;17.490;2023-07-20T09:12:57;2.60;;;1.10;;
77026;SDS011;65956;52.986;17.490;2023-07-20T09:15:23;3.50;;;1.20;;
77026;SDS011;65956;52.986;17.490;2023-07-20T09:17:50;3.40;;;1.20;;
77026;SDS011;65956;52.986;17.490;2023-07-20T09:20:19;2.50;;;1.10;;
77026;SDS011;65956;52.986;17.490;2023-07-20T09:22:46;3.90;;;1.30;;
77026;SDS011;65956;52.986;17.490;2023-07-20T09:25:15;3.20;;;1.20;;
77026;SDS011;65956;52.986;17.490;2023-07-20T09:27:44;4.60;;;1.30;;
77026;SDS011;65956;52.986;17.490;2023-07-20T09:30:12;2.80;;;1.10;;
77026;SDS011;65956;52.986;17.490;2023-07-20T09:32:42;5.70;;;1.10;;
77026;SDS011;65956;52.986;17.490;2023-07-20T09:35:16;1.60;;;0.70;;
77026;SDS011;65956;52.986;17.490;2023-07-20T09:37:47;2.10;;;1.00;;
77026;SDS011;65956;52.986;17.490;2023-07-20T09:40:17;2.80;;;1.00;;
77026;SDS011;65956;52.986;17.490;2023-07-20T09:42:44;2.70;;;1.10;;
77026;SDS011;65956;52.986;17.490;2023-07-20T09:45:11;2.60;;;1.20;;
77026;SDS011;65956;52.986;17.490;2023-07-20T09:47:37;2.70;;;1.60;;
77026;SDS011;65956;52.986;17.490;2023-07-20T09:50:04;3.10;;;1.90;;
77026;SDS011;65956;52.986;17.490;2023-07-20T09:52:39;9.30;;;2.00;;
77026;SDS011;65956;52.986;17.490;2023-07-20T09:55:07;3.10;;;1.90;;
77026;SDS011;65956;52.986;17.490;2023-07-20T09:57:34;3.40;;;2.00;;
77026;SDS011;65956;52.986;17.490;2023-07-20T10:00:05;3.90;;;2.40;;
77026;SDS011;65956;52.986;17.490;2023-07-20T10:02:42;3.50;;;2.30;;
77026;SDS011;65956;52.986;17.490;2023-07-20T10:05:13;3.50;;;2.60;;
77026;SDS011;65956;52.986;17.490;2023-07-20T10:07:44;4.60;;;2.30;;
77026;SDS011;65956;52.986;17.490;2023-07-20T10:10:13;3.40;;;2.00;;
77026;SDS011;65956;52.986;17.490;2023-07-20T10:12:41;3.90;;;2.50;;
77026;SDS011;65956;52.986;17.490;2023-07-20T10:18:01;3.30;;;2.20;;
77026;SDS011;65956;52.986;17.490;2023-07-20T10:20:32;3.30;;;2.20;;
77026;SDS011;65956;52.986;17.490;2023-07-20T10:23:00;4.80;;;1.80;;
77026;SDS011;65956;52.986;17.490;2023-07-20T10:25:26;3.00;;;2.00;;
77026;SDS011;65956;52.986;17.490;2023-07-20T10:27:53;3.10;;;2.10;;
77026;SDS011;65956;52.986;17.490;2023-07-20T10:30:20;3.50;;;2.30;;
77026;SDS011;65956;52.986;17.490;2023-07-20T10:32:47;3.40;;;2.20;;
77026;SDS011;65956;52.986;17.490;2023-07-20T10:35:14;5.30;;;4.20;;
77026;SDS011;65956;52.986;17.490;2023-07-20T10:37:54;3.40;;;2.40;;
77026;SDS011;65956;52.986;17.490;2023-07-20T10:40:37;6.50;;;3.80;;
77026;SDS011;65956;52.986;17.490;2023-07-20T10:43:05;5.50;;;3.70;;
77026;SDS011;65956;52.986;17.490;2023-07-20T10:48:19;4.00;;;2.60;;
77026;SDS011;65956;52.986;17.490;2023-07-20T10:53:49;3.60;;;2.60;;
77026;SDS011;65956;52.986;17.490;2023-07-20T10:56:19;3.60;;;2.40;;
77026;SDS011;65956;52.986;17.490;2023-07-20T10:58:46;4.00;;;2.40;;
77026;SDS011;65956;52.986;17.490;2023-07-20T11:01:16;3.90;;;2.40;;
77026;SDS011;65956;52.986;17.490;2023-07-20T11:03:43;4.60;;;2.30;;
77026;SDS011;65956;52.986;17.490;2023-07-20T11:08:55;4.20;;;2.90;;
77026;SDS011;65956;52.986;17.490;2023-07-20T11:11:28;3.70;;;2.20;;
77026;SDS011;65956;52.986;17.490;2023-07-20T11:19:01;9.10;;;2.40;;
77026;SDS011;65956;52.986;17.490;2023-07-20T11:21:28;3.40;;;1.80;;
77026;SDS011;65956;52.986;17.490;2023-07-20T11:23:55;4.20;;;1.90;;
77026;SDS011;65956;52.986;17.490;2023-07-20T11:26:21;3.20;;;1.50;;
77026;SDS011;65956;52.986;17.490;2023-07-20T11:28:48;3.70;;;1.70;;
77026;SDS011;65956;52.986;17.490;2023-07-20T11:31:15;2.80;;;1.10;;
77026;SDS011;65956;52.986;17.490;2023-07-20T11:33:42;2.70;;;1.30;;
77026;SDS011;65956;52.986;17.490;2023-07-20T11:36:08;2.20;;;1.10;;
77026;SDS011;65956;52.986;17.490;2023-07-20T11:38:34;2.90;;;1.40;;
77026;SDS011;65956;52.986;17.490;2023-07-20T11:41:02;3.00;;;1.20;;
77026;SDS011;65956;52.986;17.490;2023-07-20T11:43:29;2.90;;;1.40;;
77026;SDS011;65956;52.986;17.490;2023-07-20T11:45:55;5.60;;;1.40;;
77026;SDS011;65956;52.986;17.490;2023-07-20T11:48:22;3.50;;;1.30;;
77026;SDS011;65956;52.986;17.490;2023-07-20T11:50:48;5.40;;;1.50;;
77026;SDS011;65956;52.986;17.490;2023-07-20T11:53:14;4.20;;;1.60;;
77026;SDS011;65956;52.986;17.490;2023-07-20T11:55:41;3.10;;;1.30;;
77026;SDS011;65956;52.986;17.490;2023-07-20T11:58:08;3.80;;;1.50;;
77026;SDS011;65956;52.986;17.490;2023-07-20T12:00:35;2.20;;;1.20;;
77026;SDS011;65956;52.986;17.490;2023-07-20T12:03:05;3.90;;;0.90;;
77026;SDS011;65956;52.986;17.490;2023-07-20T12:05:37;3.40;;;1.00;;
77026;SDS011;65956;52.986;17.490;2023-07-20T12:08:04;3.80;;;1.40;;
77026;SDS011;65956;52.986;17.490;2023-07-20T12:10:30;4.00;;;1.20;;
77026;SDS011;65956;52.986;17.490;2023-07-20T12:13:03;3.70;;;2.50;;
77026;SDS011;65956;52.986;17.490;2023-07-20T12:15:29;3.30;;;1.70;;
77026;SDS011;65956;52.986;17.490;2023-07-20T12:18:00;3.10;;;1.50;;
77026;SDS011;65956;52.986;17.490;2023-07-20T12:20:31;2.90;;;1.30;;
77026;SDS011;65956;52.986;17.490;2023-07-20T12:23:09;3.70;;;1.30;;
77026;SDS011;65956;52.986;17.490;2023-07-20T12:25:42;2.50;;;1.10;;
77026;SDS011;65956;52.986;17.490;2023-07-20T12:28:10;5.00;;;1.50;;
77026;SDS011;65956;52.986;17.490;2023-07-20T12:30:38;3.20;;;1.20;;
77026;SDS011;65956;52.986;17.490;2023-07-20T12:33:05;2.40;;;1.10;;
77026;SDS011;65956;52.986;17.490;2023-07-20T12:35:31;2.20;;;1.10;;
77026;SDS011;65956;52.986;17.490;2023-07-20T12:37:58;2.80;;;1.20;;
77026;SDS011;65956;52.986;17.490;2023-07-20T12:40:25;3.30;;;1.40;;
77026;SDS011;65956;52.986;17.490;2023-07-20T12:42:51;3.30;;;1.10;;
77026;SDS011;65956;52.986;17.490;2023-07-20T12:45:17;2.80;;;1.10;;
77026;SDS011;65956;52.986;17.490;2023-07-20T12:47:43;3.20;;;1.10;;
77026;SDS011;65956;52.986;17.490;2023-07-20T12:50:10;6.10;;;2.40;;
77026;SDS011;65956;52.986;17.490;2023-07-20T12:52:37;2.50;;;1.00;;
77026;SDS011;65956;52.986;17.490;2023-07-20T12:55:04;2.90;;;1.10;;
77026;SDS011;65956;52.986;17.490;2023-07-20T12:57:35;2.50;;;1.20;;
77026;SDS011;65956;52.986;17.490;2023-07-20T13:00:06;2.60;;;1.20;;
77026;SDS011;65956;52.986;17.490;2023-07-20T13:02:35;3.70;;;1.60;;
77026;SDS011;65956;52.986;17.490;2023-07-20T13:05:02;3.20;;;1.30;;
77026;SDS011;65956;52.986;17.490;2023-07-20T13:07:29;3.20;;;1.50;;
77026;SDS011;65956;52.986;17.490;2023-07-20T13:09:59;2.70;;;1.10;;
77026;SDS011;65956;52.986;17.490;2023-07-20T13:12:27;2.80;;;1.10;;
77026;SDS011;65956;52.986;17.490;2023-07-20T13:14:55;3.40;;;1.10;;
77026;SDS011;65956;52.986;17.490;2023-07-20T13:17:22;2.50;;;1.20;;
77026;SDS011;65956;52.986;17.490;2023-07-20T13:19:48;4.10;;;1.60;;
77026;SDS011;65956;52.986;17.490;2023-07-20T13:22:14;4.10;;;1.60;;
77026;SDS011;65956;52.986;17.490;2023-07-20T13:24:40;3.00;;;1.20;;
77026;SDS011;65956;52.986;17.490;2023-07-20T13:27:07;2.90;;;1.00;;
77026;SDS011;65956;52.986;17.490;2023-07-20T13:29:33;2.40;;;1.00;;
77026;SDS011;65956;52.986;17.490;2023-07-20T13:31:59;3.60;;;1.00;;
77026;SDS011;65956;52.986;17.490;2023-07-20T13:34:25;2.20;;;1.00;;
77026;SDS011;65956;52.986;17.490;2023-07-20T13:36:51;2.40;;;0.80;;
77026;SDS011;65956;52.986;17.490;2023-07-20T13:39:17;2.10;;;0.80;;
77026;SDS011;65956;52.986;17.490;2023-07-20T13:41:44;2.70;;;1.20;;
77026;SDS011;65956;52.986;17.490;2023-07-20T13:44:10;2.40;;;0.80;;
77026;SDS011;65956;52.986;17.490;2023-07-20T13:46:37;3.60;;;1.40;;
77026;SDS011;65956;52.986;17.490;2023-07-20T13:49:03;2.80;;;1.10;;
77026;SDS011;65956;52.986;17.490;2023-07-20T13:51:29;2.50;;;1.00;;
77026;SDS011;65956;52.986;17.490;2023-07-20T13:53:55;1.70;;;0.70;;
77026;SDS011;65956;52.986;17.490;2023-07-20T13:56:21;2.10;;;0.90;;
77026;SDS011;65956;52.986;17.490;2023-07-20T13:58:47;1.70;;;0.80;;
77026;SDS011;65956;52.986;17.490;2023-07-20T14:01:13;0.90;;;0.60;;
77026;SDS011;65956;52.986;17.490;2023-07-20T14:03:39;1.80;;;0.80;;
77026;SDS011;65956;52.986;17.490;2023-07-20T14:06:05;1.40;;;0.80;;
77026;SDS011;65956;52.986;17.490;2023-07-20T14:08:31;2.50;;;1.00;;
77026;SDS011;65956;52.986;17.490;2023-07-20T14:10:57;2.60;;;1.10;;
77026;SDS011;65956;52.986;17.490;2023-07-20T14:13:24;2.50;;;1.10;;
77026;SDS011;65956;52.986;17.490;2023-07-20T14:15:49;3.00;;;1.40;;
77026;SDS011;65956;52.986;17.490;2023-07-20T14:18:16;4.30;;;1.50;;
77026;SDS011;65956;52.986;17.490;2023-07-20T14:20:42;4.20;;;1.70;;
77026;SDS011;65956;52.986;17.490;2023-07-20T14:23:09;3.70;;;1.80;;
77026;SDS011;65956;52.986;17.490;2023-07-20T14:25:35;4.70;;;1.80;;
77026;SDS011;65956;52.986;17.490;2023-07-20T14:28:01;3.50;;;1.80;;
77026;SDS011;65956;52.986;17.490;2023-07-20T14:30:27;3.60;;;1.70;;
77026;SDS011;65956;52.986;17.490;2023-07-20T14:32:53;4.20;;;1.90;;
77026;SDS011;65956;52.986;17.490;2023-07-20T14:35:19;4.00;;;2.00;;
77026;SDS011;65956;52.986;17.490;2023-07-20T14:37:45;4.00;;;2.10;;
77026;SDS011;65956;52.986;17.490;2023-07-20T14:40:12;4.10;;;2.00;;
77026;SDS011;65956;52.986;17.490;2023-07-20T14:42:39;4.50;;;2.60;;
77026;SDS011;65956;52.986;17.490;2023-07-20T14:45:05;4.10;;;2.60;;
77026;SDS011;65956;52.986;17.490;2023-07-20T14:47:31;4.90;;;2.40;;
77026;SDS011;65956;52.986;17.490;2023-07-20T14:50:01;3.60;;;1.90;;
77026;SDS011;65956;52.986;17.490;2023-07-20T14:52:28;3.50;;;2.20;;
77026;SDS011;65956;52.986;17.490;2023-07-20T14:54:54;3.50;;;1.80;;
77026;SDS011;65956;52.986;17.490;2023-07-20T14:57:20;3.20;;;1.50;;